sensor_id;sensor_type;location;lat;lon;timestamp;P1;durP1;ratioP1;P2;durP2;ratioP2
49842;SDS011;55559;48.898;9.184;2022-08-19T00:01:57;15.05;;;11.90;;
49842;SDS011;55559;48.898;9.184;2022-08-19T00:04:27;13.60;;;10.88;;
49842;SDS011;55559;48.898;9.184;2022-08-19T00:06:56;10.77;;;9.73;;
49842;SDS011;55559;48.898;9.184;2022-08-19T00:09:24;15.40;;;10.55;;
49842;SDS011;55559;48.898;9.184;2022-08-19T00:11:53;16.90;;;11.43;;
49842;SDS011;55559;48.898;9.184;2022-08-19T00:14:22;15.35;;;10.60;;
49842;SDS011;55559;48.898;9.184;2022-08-19T00:16:51;13.55;;;11.40;;
49842;SDS011;55559;48.898;9.184;2022-08-19T00:19:19;12.60;;;11.30;;
49842;SDS011;55559;48.898;9.184;2022-08-19T00:21:49;14.35;;;11.80;;
49842;SDS011;55559;48.898;9.184;2022-08-19T00:24:16;16.55;;;12.38;;
49842;SDS011;55559;48.898;9.184;2022-08-19T00:26:44;18.60;;;12.23;;
49842;SDS011;55559;48.898;9.184;2022-08-19T00:29:12;15.55;;;11.77;;
49842;SDS011;55559;48.898;9.184;2022-08-19T00:31:41;17.73;;;11.93;;
49842;SDS011;55559;48.898;9.184;2022-08-19T00:34:09;13.25;;;11.45;;
49842;SDS011;55559;48.898;9.184;2022-08-19T00:36:37;13.35;;;10.73;;
49842;SDS011;55559;48.898;9.184;2022-08-19T00:39:07;20.05;;;12.75;;
49842;SDS011;55559;48.898;9.184;2022-08-19T00:41:35;12.65;;;11.05;;
49842;SDS011;55559;48.898;9.184;2022-08-19T00:44:03;12.27;;;11.05;;
49842;SDS011;55559;48.898;9.184;2022-08-19T00:46:33;12.95;;;11.05;;
49842;SDS011;55559;48.898;9.184;2022-08-19T00:49:02;16.67;;;11.90;;
49842;SDS011;55559;48.898;9.184;2022-08-19T00:51:36;15.55;;;10.80;;
49842;SDS011;55559;48.898;9.184;2022-08-19T00:54:04;19.35;;;11.52;;
49842;SDS011;55559;48.898;9.184;2022-08-19T00:56:33;15.95;;;11.20;;
49842;SDS011;55559;48.898;9.184;2022-08-19T00:59:01;17.35;;;11.68;;
49842;SDS011;55559;48.898;9.184;2022-08-19T01:01:33;11.35;;;10.00;;
49842;SDS011;55559;48.898;9.184;2022-08-19T01:04:01;13.43;;;11.45;;
49842;SDS011;55559;48.898;9.184;2022-08-19T01:06:29;13.70;;;11.15;;
49842;SDS011;55559;48.898;9.184;2022-08-19T01:08:58;22.65;;;12.38;;
49842;SDS011;55559;48.898;9.184;2022-08-19T01:11:26;13.63;;;11.00;;
49842;SDS011;55559;48.898;9.184;2022-08-19T01:13:55;15.10;;;11.65;;
49842;SDS011;55559;48.898;9.184;2022-08-19T01:16:24;14.38;;;12.25;;
49842;SDS011;55559;48.898;9.184;2022-08-19T01:18:54;23.00;;;12.82;;
49842;SDS011;55559;48.898;9.184;2022-08-19T01:21:22;19.77;;;12.40;;
49842;SDS011;55559;48.898;9.184;2022-08-19T01:23:59;20.15;;;12.95;;
49842;SDS011;55559;48.898;9.184;2022-08-19T01:26:26;19.40;;;12.07;;
49842;SDS011;55559;48.898;9.184;2022-08-19T01:28:55;15.85;;;13.10;;
49842;SDS011;55559;48.898;9.184;2022-08-19T01:31:24;13.13;;;11.65;;
49842;SDS011;55559;48.898;9.184;2022-08-19T01:33:56;20.60;;;13.20;;
49842;SDS011;55559;48.898;9.184;2022-08-19T01:36:25;18.52;;;12.15;;
49842;SDS011;55559;48.898;9.184;2022-08-19T01:38:55;21.27;;;13.85;;
49842;SDS011;55559;48.898;9.184;2022-08-19T01:41:25;19.70;;;14.35;;
49842;SDS011;55559;48.898;9.184;2022-08-19T01:43:54;19.13;;;13.23;;
49842;SDS011;55559;48.898;9.184;2022-08-19T01:46:21;16.75;;;13.15;;
49842;SDS011;55559;48.898;9.184;2022-08-19T01:48:49;19.42;;;14.02;;
49842;SDS011;55559;48.898;9.184;2022-08-19T01:51:17;21.30;;;15.25;;
49842;SDS011;55559;48.898;9.184;2022-08-19T01:53:47;23.42;;;15.00;;
49842;SDS011;55559;48.898;9.184;2022-08-19T01:56:15;18.27;;;14.50;;
49842;SDS011;55559;48.898;9.184;2022-08-19T01:58:46;20.33;;;15.30;;
49842;SDS011;55559;48.898;9.184;2022-08-19T02:01:17;19.70;;;15.52;;
49842;SDS011;55559;48.898;9.184;2022-08-19T02:03:44;20.33;;;14.07;;
49842;SDS011;55559;48.898;9.184;2022-08-19T02:06:12;21.35;;;15.32;;
49842;SDS011;55559;48.898;9.184;2022-08-19T02:08:42;23.42;;;15.65;;
49842;SDS011;55559;48.898;9.184;2022-08-19T02:11:17;21.33;;;15.57;;
49842;SDS011;55559;48.898;9.184;2022-08-19T02:13:48;21.65;;;15.60;;
49842;SDS011;55559;48.898;9.184;2022-08-19T02:16:15;20.65;;;15.25;;
49842;SDS011;55559;48.898;9.184;2022-08-19T02:18:44;22.67;;;15.32;;
49842;SDS011;55559;48.898;9.184;2022-08-19T02:21:14;24.45;;;16.55;;
49842;SDS011;55559;48.898;9.184;2022-08-19T02:23:41;25.13;;;16.73;;
49842;SDS011;55559;48.898;9.184;2022-08-19T02:26:09;26.63;;;16.98;;
49842;SDS011;55559;48.898;9.184;2022-08-19T02:28:37;23.65;;;17.30;;
49842;SDS011;55559;48.898;9.184;2022-08-19T02:31:10;24.55;;;16.83;;
49842;SDS011;55559;48.898;9.184;2022-08-19T02:33:40;21.65;;;17.02;;
49842;SDS011;55559;48.898;9.184;2022-08-19T02:36:08;21.63;;;17.17;;
49842;SDS011;55559;48.898;9.184;2022-08-19T02:38:37;26.60;;;17.02;;
49842;SDS011;55559;48.898;9.184;2022-08-19T02:41:06;26.50;;;18.90;;
49842;SDS011;55559;48.898;9.184;2022-08-19T02:43:35;24.85;;;18.15;;
49842;SDS011;55559;48.898;9.184;2022-08-19T02:46:11;27.90;;;19.48;;
49842;SDS011;55559;48.898;9.184;2022-08-19T02:48:40;21.45;;;17.23;;
49842;SDS011;55559;48.898;9.184;2022-08-19T02:51:09;22.45;;;16.45;;
49842;SDS011;55559;48.898;9.184;2022-08-19T02:53:43;22.38;;;17.15;;
49842;SDS011;55559;48.898;9.184;2022-08-19T02:56:10;27.75;;;20.13;;
49842;SDS011;55559;48.898;9.184;2022-08-19T02:58:38;23.23;;;17.85;;
49842;SDS011;55559;48.898;9.184;2022-08-19T03:01:06;22.63;;;18.05;;
49842;SDS011;55559;48.898;9.184;2022-08-19T03:03:35;27.80;;;19.33;;
49842;SDS011;55559;48.898;9.184;2022-08-19T03:06:03;28.33;;;19.50;;
49842;SDS011;55559;48.898;9.184;2022-08-19T03:08:32;25.50;;;19.40;;
49842;SDS011;55559;48.898;9.184;2022-08-19T03:11:00;25.80;;;19.55;;
49842;SDS011;55559;48.898;9.184;2022-08-19T03:13:27;28.40;;;19.13;;
49842;SDS011;55559;48.898;9.184;2022-08-19T03:15:55;34.60;;;20.85;;
49842;SDS011;55559;48.898;9.184;2022-08-19T03:18:22;26.60;;;21.02;;
49842;SDS011;55559;48.898;9.184;2022-08-19T03:20:52;28.85;;;20.35;;
49842;SDS011;55559;48.898;9.184;2022-08-19T03:23:20;32.45;;;22.65;;
49842;SDS011;55559;48.898;9.184;2022-08-19T03:25:48;29.48;;;21.30;;
49842;SDS011;55559;48.898;9.184;2022-08-19T03:28:17;27.98;;;20.60;;
49842;SDS011;55559;48.898;9.184;2022-08-19T03:30:54;29.25;;;22.80;;
49842;SDS011;55559;48.898;9.184;2022-08-19T03:33:24;27.60;;;21.48;;
49842;SDS011;55559;48.898;9.184;2022-08-19T03:36:04;27.75;;;21.30;;
49842;SDS011;55559;48.898;9.184;2022-08-19T03:38:34;30.77;;;22.02;;
49842;SDS011;55559;48.898;9.184;2022-08-19T03:41:03;35.70;;;22.88;;
49842;SDS011;55559;48.898;9.184;2022-08-19T03:43:34;29.20;;;22.20;;
49842;SDS011;55559;48.898;9.184;2022-08-19T03:46:03;31.13;;;23.98;;
49842;SDS011;55559;48.898;9.184;2022-08-19T03:48:32;30.58;;;22.30;;
49842;SDS011;55559;48.898;9.184;2022-08-19T03:51:00;29.67;;;23.20;;
49842;SDS011;55559;48.898;9.184;2022-08-19T03:53:30;28.55;;;23.27;;
49842;SDS011;55559;48.898;9.184;2022-08-19T03:55:59;32.20;;;24.08;;
49842;SDS011;55559;48.898;9.184;2022-08-19T03:58:27;33.45;;;22.83;;
49842;SDS011;55559;48.898;9.184;2022-08-19T04:00:56;32.72;;;23.63;;
49842;SDS011;55559;48.898;9.184;2022-08-19T04:03:24;33.22;;;23.88;;
49842;SDS011;55559;48.898;9.184;2022-08-19T04:05:53;28.30;;;22.50;;
49842;SDS011;55559;48.898;9.184;2022-08-19T04:08:20;31.08;;;24.05;;
49842;SDS011;55559;48.898;9.184;2022-08-19T04:10:49;30.77;;;22.75;;
49842;SDS011;55559;48.898;9.184;2022-08-19T04:13:17;34.90;;;23.38;;
49842;SDS011;55559;48.898;9.184;2022-08-19T04:15:45;29.77;;;23.80;;
49842;SDS011;55559;48.898;9.184;2022-08-19T04:18:13;27.67;;;22.60;;
49842;SDS011;55559;48.898;9.184;2022-08-19T04:20:42;33.45;;;23.42;;
49842;SDS011;55559;48.898;9.184;2022-08-19T04:23:10;28.23;;;23.83;;
49842;SDS011;55559;48.898;9.184;2022-08-19T04:25:39;29.85;;;23.17;;
49842;SDS011;55559;48.898;9.184;2022-08-19T04:28:10;28.05;;;23.02;;
49842;SDS011;55559;48.898;9.184;2022-08-19T04:30:40;35.15;;;24.20;;
49842;SDS011;55559;48.898;9.184;2022-08-19T04:33:08;28.17;;;22.05;;
49842;SDS011;55559;48.898;9.184;2022-08-19T04:35:37;26.65;;;21.77;;
49842;SDS011;55559;48.898;9.184;2022-08-19T04:38:05;33.10;;;23.15;;
49842;SDS011;55559;48.898;9.184;2022-08-19T04:40:34;32.50;;;23.70;;
49842;SDS011;55559;48.898;9.184;2022-08-19T04:43:25;32.22;;;23.60;;
49842;SDS011;55559;48.898;9.184;2022-08-19T04:45:53;31.30;;;23.08;;
49842;SDS011;55559;48.898;9.184;2022-08-19T04:48:21;32.88;;;22.85;;
49842;SDS011;55559;48.898;9.184;2022-08-19T04:50:51;29.42;;;23.85;;
49842;SDS011;55559;48.898;9.184;2022-08-19T04:53:23;33.17;;;23.33;;
49842;SDS011;55559;48.898;9.184;2022-08-19T04:55:54;33.22;;;22.95;;
49842;SDS011;55559;48.898;9.184;2022-08-19T04:58:23;35.53;;;23.75;;
49842;SDS011;55559;48.898;9.184;2022-08-19T05:00:53;29.90;;;21.90;;
49842;SDS011;55559;48.898;9.184;2022-08-19T05:03:20;29.15;;;22.67;;
49842;SDS011;55559;48.898;9.184;2022-08-19T05:05:48;37.47;;;23.40;;
49842;SDS011;55559;48.898;9.184;2022-08-19T05:08:16;29.98;;;23.23;;
49842;SDS011;55559;48.898;9.184;2022-08-19T05:10:47;31.10;;;23.95;;
49842;SDS011;55559;48.898;9.184;2022-08-19T05:13:17;31.88;;;23.58;;
49842;SDS011;55559;48.898;9.184;2022-08-19T05:15:54;29.13;;;24.45;;
49842;SDS011;55559;48.898;9.184;2022-08-19T05:18:22;37.92;;;23.30;;
49842;SDS011;55559;48.898;9.184;2022-08-19T05:21:08;28.92;;;22.73;;
49842;SDS011;55559;48.898;9.184;2022-08-19T05:23:54;32.58;;;23.45;;
49842;SDS011;55559;48.898;9.184;2022-08-19T05:26:21;27.38;;;22.95;;
49842;SDS011;55559;48.898;9.184;2022-08-19T05:28:48;28.50;;;22.05;;
49842;SDS011;55559;48.898;9.184;2022-08-19T05:31:17;29.77;;;22.10;;
49842;SDS011;55559;48.898;9.184;2022-08-19T05:33:45;28.65;;;22.95;;
49842;SDS011;55559;48.898;9.184;2022-08-19T05:36:13;28.92;;;22.98;;
49842;SDS011;55559;48.898;9.184;2022-08-19T05:38:41;27.38;;;23.02;;
49842;SDS011;55559;48.898;9.184;2022-08-19T05:41:08;32.58;;;23.70;;
49842;SDS011;55559;48.898;9.184;2022-08-19T05:43:37;30.55;;;22.17;;
49842;SDS011;55559;48.898;9.184;2022-08-19T05:46:04;25.92;;;22.23;;
49842;SDS011;55559;48.898;9.184;2022-08-19T05:48:34;33.85;;;23.15;;
49842;SDS011;55559;48.898;9.184;2022-08-19T05:51:03;32.35;;;23.25;;
49842;SDS011;55559;48.898;9.184;2022-08-19T05:53:32;30.23;;;22.40;;
49842;SDS011;55559;48.898;9.184;2022-08-19T05:56:03;28.02;;;23.27;;
49842;SDS011;55559;48.898;9.184;2022-08-19T05:58:32;28.50;;;22.13;;
49842;SDS011;55559;48.898;9.184;2022-08-19T06:00:59;29.95;;;22.42;;
49842;SDS011;55559;48.898;9.184;2022-08-19T06:03:30;29.88;;;23.35;;
49842;SDS011;55559;48.898;9.184;2022-08-19T06:05:59;28.33;;;23.38;;
49842;SDS011;55559;48.898;9.184;2022-08-19T06:08:28;29.63;;;23.15;;
49842;SDS011;55559;48.898;9.184;2022-08-19T06:10:55;28.17;;;23.00;;
49842;SDS011;55559;48.898;9.184;2022-08-19T06:13:23;30.48;;;24.92;;
49842;SDS011;55559;48.898;9.184;2022-08-19T06:15:51;34.45;;;23.52;;
49842;SDS011;55559;48.898;9.184;2022-08-19T06:18:18;29.90;;;23.42;;
49842;SDS011;55559;48.898;9.184;2022-08-19T06:20:46;28.83;;;23.95;;
49842;SDS011;55559;48.898;9.184;2022-08-19T06:23:15;29.00;;;23.20;;
49842;SDS011;55559;48.898;9.184;2022-08-19T06:25:44;28.05;;;23.02;;
49842;SDS011;55559;48.898;9.184;2022-08-19T06:28:11;32.67;;;25.65;;
49842;SDS011;55559;48.898;9.184;2022-08-19T06:30:39;34.33;;;24.13;;
49842;SDS011;55559;48.898;9.184;2022-08-19T06:33:07;30.10;;;23.55;;
49842;SDS011;55559;48.898;9.184;2022-08-19T06:35:38;31.33;;;22.67;;
49842;SDS011;55559;48.898;9.184;2022-08-19T06:38:05;29.58;;;22.33;;
49842;SDS011;55559;48.898;9.184;2022-08-19T06:40:36;34.00;;;23.90;;
49842;SDS011;55559;48.898;9.184;2022-08-19T06:43:03;29.05;;;22.95;;
49842;SDS011;55559;48.898;9.184;2022-08-19T06:45:31;28.77;;;23.70;;
49842;SDS011;55559;48.898;9.184;2022-08-19T06:47:59;28.02;;;22.50;;
49842;SDS011;55559;48.898;9.184;2022-08-19T06:50:27;30.67;;;22.60;;
49842;SDS011;55559;48.898;9.184;2022-08-19T06:52:54;34.72;;;23.95;;
49842;SDS011;55559;48.898;9.184;2022-08-19T06:55:22;28.40;;;21.92;;
49842;SDS011;55559;48.898;9.184;2022-08-19T06:57:51;31.88;;;21.27;;
49842;SDS011;55559;48.898;9.184;2022-08-19T07:00:18;29.17;;;21.90;;
49842;SDS011;55559;48.898;9.184;2022-08-19T07:02:46;27.63;;;21.85;;
49842;SDS011;55559;48.898;9.184;2022-08-19T07:05:14;25.00;;;21.10;;
49842;SDS011;55559;48.898;9.184;2022-08-19T07:07:42;26.88;;;20.70;;
49842;SDS011;55559;48.898;9.184;2022-08-19T07:10:10;25.23;;;20.25;;
49842;SDS011;55559;48.898;9.184;2022-08-19T07:12:37;23.45;;;18.70;;
49842;SDS011;55559;48.898;9.184;2022-08-19T07:15:08;27.40;;;21.08;;
49842;SDS011;55559;48.898;9.184;2022-08-19T07:17:36;30.98;;;20.55;;
49842;SDS011;55559;48.898;9.184;2022-08-19T07:20:05;24.85;;;18.50;;
49842;SDS011;55559;48.898;9.184;2022-08-19T07:22:33;26.25;;;19.98;;
49842;SDS011;55559;48.898;9.184;2022-08-19T07:25:01;21.83;;;19.05;;
49842;SDS011;55559;48.898;9.184;2022-08-19T07:27:30;24.90;;;18.80;;
49842;SDS011;55559;48.898;9.184;2022-08-19T07:29:57;22.38;;;18.15;;
49842;SDS011;55559;48.898;9.184;2022-08-19T07:32:26;22.33;;;18.63;;
49842;SDS011;55559;48.898;9.184;2022-08-19T07:34:54;22.10;;;19.13;;
49842;SDS011;55559;48.898;9.184;2022-08-19T07:37:22;23.85;;;18.98;;
49842;SDS011;55559;48.898;9.184;2022-08-19T07:39:52;27.38;;;18.65;;
49842;SDS011;55559;48.898;9.184;2022-08-19T07:42:19;22.40;;;18.40;;
49842;SDS011;55559;48.898;9.184;2022-08-19T07:44:47;21.33;;;17.55;;
49842;SDS011;55559;48.898;9.184;2022-08-19T07:47:14;27.27;;;17.42;;
49842;SDS011;55559;48.898;9.184;2022-08-19T07:49:44;22.15;;;18.80;;
49842;SDS011;55559;48.898;9.184;2022-08-19T07:52:12;20.35;;;17.38;;
49842;SDS011;55559;48.898;9.184;2022-08-19T07:54:39;22.70;;;17.98;;
49842;SDS011;55559;48.898;9.184;2022-08-19T07:57:07;25.30;;;18.15;;
49842;SDS011;55559;48.898;9.184;2022-08-19T07:59:36;21.55;;;17.70;;
49842;SDS011;55559;48.898;9.184;2022-08-19T08:02:03;19.27;;;16.92;;
49842;SDS011;55559;48.898;9.184;2022-08-19T08:04:31;23.08;;;16.08;;
49842;SDS011;55559;48.898;9.184;2022-08-19T08:07:18;22.40;;;15.90;;
49842;SDS011;55559;48.898;9.184;2022-08-19T08:10:03;19.35;;;15.63;;
49842;SDS011;55559;48.898;9.184;2022-08-19T08:12:33;26.85;;;16.52;;
49842;SDS011;55559;48.898;9.184;2022-08-19T08:15:07;21.23;;;15.75;;
49842;SDS011;55559;48.898;9.184;2022-08-19T08:17:36;16.67;;;14.93;;
49842;SDS011;55559;48.898;9.184;2022-08-19T08:20:05;19.67;;;14.88;;
49842;SDS011;55559;48.898;9.184;2022-08-19T08:22:35;17.40;;;14.90;;
49842;SDS011;55559;48.898;9.184;2022-08-19T08:25:20;21.67;;;15.07;;
49842;SDS011;55559;48.898;9.184;2022-08-19T08:27:49;28.75;;;15.50;;
49842;SDS011;55559;48.898;9.184;2022-08-19T08:30:18;21.30;;;15.13;;
49842;SDS011;55559;48.898;9.184;2022-08-19T08:32:47;19.70;;;15.10;;
49842;SDS011;55559;48.898;9.184;2022-08-19T08:35:17;20.58;;;15.88;;
49842;SDS011;55559;48.898;9.184;2022-08-19T08:37:48;20.25;;;15.85;;
49842;SDS011;55559;48.898;9.184;2022-08-19T08:40:18;22.83;;;13.40;;
49842;SDS011;55559;48.898;9.184;2022-08-19T08:42:51;18.65;;;14.93;;
49842;SDS011;55559;48.898;9.184;2022-08-19T08:45:27;20.30;;;14.15;;
49842;SDS011;55559;48.898;9.184;2022-08-19T08:47:56;19.63;;;14.57;;
49842;SDS011;55559;48.898;9.184;2022-08-19T08:50:31;16.25;;;14.50;;
49842;SDS011;55559;48.898;9.184;2022-08-19T08:53:03;18.77;;;13.35;;
49842;SDS011;55559;48.898;9.184;2022-08-19T08:55:34;23.80;;;13.90;;
49842;SDS011;55559;48.898;9.184;2022-08-19T08:58:02;22.38;;;14.93;;
49842;SDS011;55559;48.898;9.184;2022-08-19T09:00:33;21.15;;;13.85;;
49842;SDS011;55559;48.898;9.184;2022-08-19T09:03:03;17.08;;;13.70;;
49842;SDS011;55559;48.898;9.184;2022-08-19T09:05:38;17.13;;;12.95;;
49842;SDS011;55559;48.898;9.184;2022-08-19T09:08:16;19.65;;;14.77;;
49842;SDS011;55559;48.898;9.184;2022-08-19T09:10:52;22.23;;;14.55;;
49842;SDS011;55559;48.898;9.184;2022-08-19T09:13:23;20.27;;;13.55;;
49842;SDS011;55559;48.898;9.184;2022-08-19T09:15:58;15.48;;;13.38;;
49842;SDS011;55559;48.898;9.184;2022-08-19T09:18:38;16.63;;;12.88;;
49842;SDS011;55559;48.898;9.184;2022-08-19T09:21:07;17.70;;;12.27;;
49842;SDS011;55559;48.898;9.184;2022-08-19T09:23:36;15.48;;;11.73;;
49842;SDS011;55559;48.898;9.184;2022-08-19T09:26:06;15.82;;;11.80;;
49842;SDS011;55559;48.898;9.184;2022-08-19T09:28:35;17.95;;;12.80;;
49842;SDS011;55559;48.898;9.184;2022-08-19T09:31:03;17.23;;;11.10;;
49842;SDS011;55559;48.898;9.184;2022-08-19T09:33:31;17.27;;;11.82;;
49842;SDS011;55559;48.898;9.184;2022-08-19T09:36:02;20.73;;;11.80;;
49842;SDS011;55559;48.898;9.184;2022-08-19T09:38:32;16.63;;;11.43;;
49842;SDS011;55559;48.898;9.184;2022-08-19T09:41:05;19.15;;;12.10;;
49842;SDS011;55559;48.898;9.184;2022-08-19T09:43:34;19.85;;;11.95;;
49842;SDS011;55559;48.898;9.184;2022-08-19T09:46:02;14.32;;;10.07;;
49842;SDS011;55559;48.898;9.184;2022-08-19T09:48:31;14.27;;;10.05;;
49842;SDS011;55559;48.898;9.184;2022-08-19T09:51:03;16.02;;;10.82;;
49842;SDS011;55559;48.898;9.184;2022-08-19T09:53:33;12.38;;;10.32;;
49842;SDS011;55559;48.898;9.184;2022-08-19T09:56:01;14.80;;;10.30;;
49842;SDS011;55559;48.898;9.184;2022-08-19T09:58:30;15.77;;;9.95;;
49842;SDS011;55559;48.898;9.184;2022-08-19T10:00:59;19.30;;;11.38;;
49842;SDS011;55559;48.898;9.184;2022-08-19T10:03:27;15.88;;;9.18;;
49842;SDS011;55559;48.898;9.184;2022-08-19T10:05:57;16.75;;;10.18;;
49842;SDS011;55559;48.898;9.184;2022-08-19T10:08:26;13.40;;;10.20;;
49842;SDS011;55559;48.898;9.184;2022-08-19T10:10:56;14.52;;;10.13;;
49842;SDS011;55559;48.898;9.184;2022-08-19T10:13:24;18.35;;;10.07;;
49842;SDS011;55559;48.898;9.184;2022-08-19T10:15:55;12.93;;;9.13;;
49842;SDS011;55559;48.898;9.184;2022-08-19T10:18:30;14.25;;;9.00;;
49842;SDS011;55559;48.898;9.184;2022-08-19T10:21:03;15.10;;;8.95;;
49842;SDS011;55559;48.898;9.184;2022-08-19T10:23:34;10.75;;;8.63;;
49842;SDS011;55559;48.898;9.184;2022-08-19T10:26:02;14.93;;;8.57;;
49842;SDS011;55559;48.898;9.184;2022-08-19T10:28:31;15.10;;;8.30;;
49842;SDS011;55559;48.898;9.184;2022-08-19T10:31:08;15.43;;;7.05;;
49842;SDS011;55559;48.898;9.184;2022-08-19T10:33:37;11.73;;;7.88;;
49842;SDS011;55559;48.898;9.184;2022-08-19T10:36:06;12.82;;;7.38;;
49842;SDS011;55559;48.898;9.184;2022-08-19T10:38:35;13.18;;;6.75;;
49842;SDS011;55559;48.898;9.184;2022-08-19T10:41:06;13.60;;;6.10;;
49842;SDS011;55559;48.898;9.184;2022-08-19T10:43:34;9.13;;;4.97;;
49842;SDS011;55559;48.898;9.184;2022-08-19T10:46:04;11.00;;;5.38;;
49842;SDS011;55559;48.898;9.184;2022-08-19T10:48:33;6.80;;;3.58;;
49842;SDS011;55559;48.898;9.184;2022-08-19T10:51:01;5.38;;;3.38;;
49842;SDS011;55559;48.898;9.184;2022-08-19T10:53:46;9.98;;;4.10;;
49842;SDS011;55559;48.898;9.184;2022-08-19T10:56:13;11.63;;;3.90;;
49842;SDS011;55559;48.898;9.184;2022-08-19T10:58:58;5.40;;;3.78;;
49842;SDS011;55559;48.898;9.184;2022-08-19T11:01:28;7.80;;;3.10;;
49842;SDS011;55559;48.898;9.184;2022-08-19T11:03:59;16.80;;;4.15;;
49842;SDS011;55559;48.898;9.184;2022-08-19T11:06:27;5.68;;;3.10;;
49842;SDS011;55559;48.898;9.184;2022-08-19T11:08:55;7.75;;;3.55;;
49842;SDS011;55559;48.898;9.184;2022-08-19T11:11:23;11.63;;;3.78;;
49842;SDS011;55559;48.898;9.184;2022-08-19T11:13:51;7.35;;;3.10;;
49842;SDS011;55559;48.898;9.184;2022-08-19T11:16:19;6.88;;;3.72;;
49842;SDS011;55559;48.898;9.184;2022-08-19T11:18:48;7.43;;;3.88;;
49842;SDS011;55559;48.898;9.184;2022-08-19T11:21:20;8.77;;;4.13;;
49842;SDS011;55559;48.898;9.184;2022-08-19T11:23:52;7.20;;;4.30;;
49842;SDS011;55559;48.898;9.184;2022-08-19T11:26:20;7.90;;;3.90;;
49842;SDS011;55559;48.898;9.184;2022-08-19T11:28:48;6.10;;;4.10;;
49842;SDS011;55559;48.898;9.184;2022-08-19T11:31:20;7.53;;;3.67;;
49842;SDS011;55559;48.898;9.184;2022-08-19T11:33:49;11.35;;;4.13;;
49842;SDS011;55559;48.898;9.184;2022-08-19T11:36:20;11.05;;;3.90;;
49842;SDS011;55559;48.898;9.184;2022-08-19T11:38:48;6.95;;;4.07;;
49842;SDS011;55559;48.898;9.184;2022-08-19T11:41:17;6.50;;;3.47;;
49842;SDS011;55559;48.898;9.184;2022-08-19T11:43:45;11.23;;;4.38;;
49842;SDS011;55559;48.898;9.184;2022-08-19T11:46:13;5.88;;;4.10;;
49842;SDS011;55559;48.898;9.184;2022-08-19T11:48:43;9.55;;;3.80;;
49842;SDS011;55559;48.898;9.184;2022-08-19T11:51:11;9.18;;;4.30;;
49842;SDS011;55559;48.898;9.184;2022-08-19T11:53:42;8.27;;;4.85;;
49842;SDS011;55559;48.898;9.184;2022-08-19T11:56:09;6.28;;;4.15;;
49842;SDS011;55559;48.898;9.184;2022-08-19T11:58:38;7.03;;;4.57;;
49842;SDS011;55559;48.898;9.184;2022-08-19T12:01:07;8.68;;;4.88;;
49842;SDS011;55559;48.898;9.184;2022-08-19T12:03:36;6.53;;;4.55;;
49842;SDS011;55559;48.898;9.184;2022-08-19T12:06:05;6.35;;;4.93;;
49842;SDS011;55559;48.898;9.184;2022-08-19T12:08:34;9.27;;;4.53;;
49842;SDS011;55559;48.898;9.184;2022-08-19T12:11:03;8.55;;;4.75;;
49842;SDS011;55559;48.898;9.184;2022-08-19T12:13:33;7.28;;;4.43;;
49842;SDS011;55559;48.898;9.184;2022-08-19T12:16:06;10.32;;;5.30;;
49842;SDS011;55559;48.898;9.184;2022-08-19T12:18:35;5.43;;;4.68;;
49842;SDS011;55559;48.898;9.184;2022-08-19T12:21:02;7.07;;;4.40;;
49842;SDS011;55559;48.898;9.184;2022-08-19T12:23:30;7.38;;;4.25;;
49842;SDS011;55559;48.898;9.184;2022-08-19T12:25:57;9.27;;;4.88;;
49842;SDS011;55559;48.898;9.184;2022-08-19T12:28:26;11.95;;;4.13;;
49842;SDS011;55559;48.898;9.184;2022-08-19T12:30:55;4.55;;;4.05;;
49842;SDS011;55559;48.898;9.184;2022-08-19T12:33:23;6.63;;;3.75;;
49842;SDS011;55559;48.898;9.184;2022-08-19T12:35:53;12.75;;;4.90;;
49842;SDS011;55559;48.898;9.184;2022-08-19T12:38:21;7.60;;;4.03;;
49842;SDS011;55559;48.898;9.184;2022-08-19T12:40:49;5.90;;;3.70;;
49842;SDS011;55559;48.898;9.184;2022-08-19T12:43:17;5.25;;;2.85;;
49842;SDS011;55559;48.898;9.184;2022-08-19T12:45:47;6.30;;;4.03;;
49842;SDS011;55559;48.898;9.184;2022-08-19T12:48:15;7.80;;;4.03;;
49842;SDS011;55559;48.898;9.184;2022-08-19T12:50:43;6.63;;;4.85;;
49842;SDS011;55559;48.898;9.184;2022-08-19T12:53:12;6.10;;;3.95;;
49842;SDS011;55559;48.898;9.184;2022-08-19T12:55:39;5.70;;;2.65;;
49842;SDS011;55559;48.898;9.184;2022-08-19T12:58:07;7.57;;;2.78;;
49842;SDS011;55559;48.898;9.184;2022-08-19T13:00:35;4.85;;;2.13;;
49842;SDS011;55559;48.898;9.184;2022-08-19T13:03:04;4.13;;;1.95;;
49842;SDS011;55559;48.898;9.184;2022-08-19T13:05:33;7.88;;;2.97;;
49842;SDS011;55559;48.898;9.184;2022-08-19T13:08:00;4.35;;;2.20;;
49842;SDS011;55559;48.898;9.184;2022-08-19T13:10:31;3.70;;;1.80;;
49842;SDS011;55559;48.898;9.184;2022-08-19T13:13:01;3.60;;;2.53;;
49842;SDS011;55559;48.898;9.184;2022-08-19T13:15:32;4.13;;;1.95;;
49842;SDS011;55559;48.898;9.184;2022-08-19T13:18:01;5.53;;;2.47;;
49842;SDS011;55559;48.898;9.184;2022-08-19T13:20:30;5.18;;;2.17;;
49842;SDS011;55559;48.898;9.184;2022-08-19T13:22:58;5.70;;;2.58;;
49842;SDS011;55559;48.898;9.184;2022-08-19T13:25:25;5.13;;;3.03;;
49842;SDS011;55559;48.898;9.184;2022-08-19T13:27:52;5.15;;;2.50;;
49842;SDS011;55559;48.898;9.184;2022-08-19T13:30:21;4.72;;;3.20;;
49842;SDS011;55559;48.898;9.184;2022-08-19T13:33:06;5.70;;;2.67;;
49842;SDS011;55559;48.898;9.184;2022-08-19T13:35:39;7.03;;;4.57;;
49842;SDS011;55559;48.898;9.184;2022-08-19T13:38:07;16.92;;;3.97;;
49842;SDS011;55559;48.898;9.184;2022-08-19T13:40:36;10.63;;;2.83;;
49842;SDS011;55559;48.898;9.184;2022-08-19T13:43:05;12.57;;;4.22;;
49842;SDS011;55559;48.898;9.184;2022-08-19T13:45:33;15.13;;;3.97;;
49842;SDS011;55559;48.898;9.184;2022-08-19T13:48:02;11.98;;;3.30;;
49842;SDS011;55559;48.898;9.184;2022-08-19T13:50:34;5.05;;;3.42;;
49842;SDS011;55559;48.898;9.184;2022-08-19T13:53:08;4.57;;;3.38;;
49842;SDS011;55559;48.898;9.184;2022-08-19T13:55:37;13.75;;;5.38;;
49842;SDS011;55559;48.898;9.184;2022-08-19T13:58:05;10.30;;;9.05;;
49842;SDS011;55559;48.898;9.184;2022-08-19T14:00:33;19.83;;;12.48;;
49842;SDS011;55559;48.898;9.184;2022-08-19T14:03:04;17.52;;;12.43;;
49842;SDS011;55559;48.898;9.184;2022-08-19T14:05:32;19.40;;;13.82;;
49842;SDS011;55559;48.898;9.184;2022-08-19T14:08:00;24.42;;;14.90;;
49842;SDS011;55559;48.898;9.184;2022-08-19T14:10:28;20.42;;;15.55;;
49842;SDS011;55559;48.898;9.184;2022-08-19T14:12:58;30.08;;;17.15;;
49842;SDS011;55559;48.898;9.184;2022-08-19T14:15:27;23.02;;;17.08;;
49842;SDS011;55559;48.898;9.184;2022-08-19T14:17:55;24.75;;;18.23;;
49842;SDS011;55559;48.898;9.184;2022-08-19T14:20:22;25.05;;;17.60;;
49842;SDS011;55559;48.898;9.184;2022-08-19T14:22:50;24.00;;;17.65;;
49842;SDS011;55559;48.898;9.184;2022-08-19T14:25:19;20.73;;;17.95;;
49842;SDS011;55559;48.898;9.184;2022-08-19T14:27:50;22.10;;;18.35;;
49842;SDS011;55559;48.898;9.184;2022-08-19T14:30:19;28.58;;;18.77;;
49842;SDS011;55559;48.898;9.184;2022-08-19T14:32:47;24.60;;;19.02;;
49842;SDS011;55559;48.898;9.184;2022-08-19T14:35:15;26.25;;;19.92;;
49842;SDS011;55559;48.898;9.184;2022-08-19T14:37:44;27.67;;;19.63;;
49842;SDS011;55559;48.898;9.184;2022-08-19T14:40:12;29.48;;;18.52;;
49842;SDS011;55559;48.898;9.184;2022-08-19T14:42:41;23.65;;;18.65;;